Date,TemperatureHighF,TemperatureAvgF,TemperatureLowF,DewpointHighF,DewpointAvgF,DewpointLowF,HumidityHigh,HumidityAvg,HumidityLow,PressureMaxIn,PressureMinIn,WindSpeedMaxMPH,WindSpeedAvgMPH,GustSpeedMaxMPH,PrecipitationSumIn
2013-1-1,27.9,16.0,9.1,7.3,0.3,-6.1,62,50,34,30.27,30.21,9,2,10,0.00
2013-1-2,31.3,20.6,8.2,12.8,4.2,-7.1,65,49,35,30.27,30.12,11,3,11,0.00
2013-1-3,29.8,25.1,16.5,23.3,17.6,11.4,85,73,57,30.36,30.15,10,3,10,0.00
2013-1-4,36.3,23.5,12.7,19.0,12.3,6.6,81,63,44,30.33,30.18,12,5,13,0.00
2013-1-5,38.3,34.4,28.4,34.5,30.5,19.2,98,87,52,30.27,30.00,11,4,12,0.04
2013-1-6,35.6,28.2,19.6,33.3,21.7,15.7,92,77,57,30.41,29.97,9,3,13,0.00
2013-1-7,41.5,29.6,17.4,25.2,19.3,14.7,91,68,41,30.44,30.12,19,5,19,0.00
2013-1-8,45.1,35.0,27.3,28.2,24.7,22.9,86,67,44,30.24,30.09,14,4,15,0.00
2013-1-9,50.2,39.3,25.3,30.0,22.3,16.0,82,52,29,30.59,30.06,16,4,16,0.00
2013-1-10,47.3,34.1,21.7,39.4,25.2,16.4,98,72,37,30.62,29.97,13,2,13,0.41
2013-1-11,52.5,48.9,40.3,51.3,47.7,39.4,98,96,86,29.97,29.71,14,4,18,0.29
2013-1-12,52.9,42.3,29.1,48.9,33.9,22.2,91,73,52,30.06,29.79,13,4,15,0.00
2013-1-13,29.7,23.1,12.6,27.9,18.1,0.0,95,81,63,30.33,29.94,8,2,9,0.00
2013-1-14,28.2,17.4,10.0,9.3,4.8,0.3,74,58,42,30.53,30.33,6,1,6,0.04
2013-1-15,34.3,21.7,9.9,18.0,9.3,3.0,85,61,38,30.53,30.21,6,1,7,0.00
2013-1-16,37.9,27.1,14.4,27.1,16.6,8.0,86,66,41,30.21,29.85,15,3,15,0.00
2013-1-17,32.9,25.2,15.8,29.5,8.8,1.0,88,51,31,30.53,30.15,9,2,10,0.00
2013-1-18,44.1,31.6,13.3,27.1,19.2,5.3,76,61,45,30.53,29.97,27,6,27,0.00
2013-1-19,47.5,40.8,24.4,34.8,26.7,4.4,70,57,35,30.03,29.76,18,6,18,0.00
2013-1-20,24.4,16.2,11.1,6.8,-1.7,-5.0,50,45,35,30.36,29.94,13,3,13,0.00
2013-1-21,12.9,8.5,1.9,-3.7,-7.5,-13.6,47,47,47,30.36,30.15,2,2,2,0.00
2013-1-22,12.2,5.6,-4.4,-4.2,-10.2,-19.5,47,47,47,30.44,30.33,4,3,4,0.00
2013-1-23,19.9,14.0,6.4,13.6,1.5,-9.5,82,57,47,30.44,30.15,12,3,12,0.00
2013-1-24,22.5,13.7,3.0,7.3,-0.8,-6.7,63,53,36,30.71,30.41,6,4,6,0.00
2013-1-25,26.8,22.2,17.6,17.0,11.0,1.2,86,62,44,30.50,30.03,7,5,7,0.00
2013-1-26,34.7,22.2,9.9,14.0,5.9,0.9,70,51,31,30.47,30.27,10,3,12,0.00
2013-1-27,35.6,29.3,23.5,35.1,22.5,0.0,98,77,55,30.50,30.00,19,4,19,0.17
2013-1-28,49.1,42.6,35.8,47.0,41.1,33.1,98,94,74,30.06,29.88,10,3,10,0.25
2013-1-29,62.6,54.7,38.3,60.8,54.0,37.8,98,97,93,29.91,29.50,17,3,20,0.91
2013-1-30,45.0,32.7,19.8,44.1,30.8,11.1,98,93,68,29.71,29.26,12,4,17,0.37
2013-1-31,22.5,13.8,4.1,14.8,1.7,-10.0,81,58,45,30.24,29.71,10,4,14,0.00
2013-2-1,14.5,7.8,-0.9,-1.3,-8.0,-14.7,51,48,43,30.39,30.24,8,4,10,0.00
2013-2-2,23.7,16.0,5.5,21.7,10.0,-6.4,98,79,44,30.24,30.06,8,2,8,0.00
2013-2-3,25.3,10.9,8.2,11.7,-0.7,-4.0,81,59,44,30.15,30.00,3,1,5,0.00
2013-2-4,30.6,22.4,10.0,24.4,17.4,2.8,98,81,70,30.06,29.91,9,3,12,4.64
2013-2-5,33.4,23.0,6.1,28.2,15.8,-1.0,89,74,56,30.18,29.85,11,2,11,0.00
2013-2-6,42.4,29.2,8.1,28.5,18.3,2.1,91,65,40,30.33,30.18,8,2,9,0.13
2013-2-7,35.1,33.3,31.5,34.5,31.9,27.2,98,95,77,30.24,29.88,9,1,10,0.41
2013-2-8,33.8,26.3,21.4,30.4,22.9,19.2,98,87,65,30.50,30.03,4,1,4,0.00
2013-2-9,38.8,25.8,16.3,25.4,20.3,14.4,98,81,51,30.53,30.15,10,1,10,0.04
2013-2-10,47.7,38.0,21.4,46.6,35.8,19.2,98,92,59,30.18,29.53,15,4,15,0.09
2013-2-11,44.1,33.4,27.9,31.0,22.3,17.1,71,63,58,30.09,29.53,18,6,24,0.04
2013-2-12,29.3,25.3,19.6,19.2,17.3,14.6,90,72,63,30.18,29.97,8,2,8,0.00
2013-2-13,46.8,32.9,19.2,32.3,25.0,16.4,98,75,43,30.00,29.76,8,2,8,0.04
2013-2-14,38.7,36.2,30.4,31.1,25.8,16.2,81,67,49,30.06,29.65,12,4,12,5.35
2013-2-15,34.2,27.0,18.3,23.0,10.3,4.2,78,50,34,30.27,30.06,10,3,10,0.00
2013-2-16,22.1,15.0,7.2,6.2,-1.2,-9.7,56,48,42,30.27,30.18,9,3,9,0.00
2013-2-17,32.2,20.9,6.1,9.6,-0.5,-10.7,55,39,30,30.30,30.09,11,1,11,0.00
2013-2-18,52.3,39.9,27.0,47.0,29.2,9.1,98,67,47,30.09,29.47,15,6,20,0.33
2013-2-19,30.0,16.1,10.2,25.3,5.2,-2.3,86,62,49,30.27,29.62,13,5,13,0.00
2013-2-20,25.9,15.6,7.0,7.4,1.4,-5.4,64,53,42,30.47,30.27,9,4,10,0.00
2013-2-21,29.3,24.6,12.0,24.5,17.7,2.0,93,75,64,30.47,30.12,12,4,14,0.00
2013-2-22,35.6,28.8,24.4,31.1,25.4,22.8,98,87,76,30.12,29.88,12,4,18,0.00
2013-2-23,38.5,27.4,20.8,23.5,17.0,11.7,84,66,39,30.03,29.94,8,3,10,0.00
2013-2-24,48.7,29.1,14.4,21.7,15.7,9.9,88,61,32,30.27,30.03,4,1,5,0.08
2013-2-25,49.3,32.6,16.5,30.0,20.9,12.2,89,65,33,30.27,30.09,9,2,9,0.00
2013-2-26,37.6,33.8,32.2,32.8,29.1,23.0,98,84,57,30.09,29.59,115,6,115,0.00
2013-2-27,38.8,34.1,32.4,36.5,32.6,31.7,98,94,79,29.79,29.59,8,2,9,0.17
2013-2-28,39.9,32.9,26.8,32.4,26.5,16.3,98,78,57,30.15,29.76,9,4,9,0.08
2013-3-1,29.7,26.4,24.6,21.6,19.3,16.4,81,74,67,30.27,30.15,7,5,7,16.42
2013-3-2,41.5,25.8,13.5,17.4,12.3,5.8,78,58,33,30.27,30.24,11,3,11,0.00
2013-3-3,42.6,23.7,10.6,12.2,6.4,0.7,75,51,27,30.27,30.15,8,2,8,0.00
2013-3-4,41.0,26.9,10.8,22.7,14.6,1.6,80,60,40,30.24,30.06,11,3,12,0.00
2013-3-5,36.0,31.8,28.6,30.8,27.5,22.1,98,84,67,30.09,29.82,10,4,10,0.00
2013-3-6,42.4,32.0,27.1,25.5,23.7,22.1,86,72,49,30.39,30.06,7,3,7,0.00
2013-3-7,55.0,34.9,22.1,24.2,19.9,15.6,81,58,28,30.50,30.36,5,2,6,0.17
2013-3-8,48.6,34.0,17.4,29.4,20.5,13.7,92,61,35,30.56,30.39,7,3,7,0.00
2013-3-9,46.8,38.5,28.8,31.4,26.2,20.9,86,62,43,30.39,29.26,9,1,10,0.00
2013-3-10,48.9,44.3,41.0,48.4,42.7,29.0,98,95,50,29.91,29.68,12,2,12,0.83
2013-3-11,47.3,38.1,32.9,46.8,37.4,29.9,98,97,88,29.88,29.59,7,2,9,0.08
2013-3-12,35.4,30.6,25.3,31.3,25.8,19.4,96,83,65,30.09,29.85,11,2,11,0.04
2013-3-13,35.2,27.6,20.3,19.2,10.4,2.5,83,50,31,30.41,30.09,10,3,13,0.00
2013-3-14,39.9,32.0,19.0,29.6,18.8,8.6,89,60,33,30.41,30.18,8,2,9,0.91
2013-3-15,46.6,35.5,30.0,35.6,31.5,27.5,98,86,53,30.21,29.82,9,2,10,1.08
2013-3-16,34.0,31.7,29.5,33.5,26.7,17.3,98,82,60,30.24,29.82,10,3,12,0.00
2013-3-17,36.7,30.6,23.2,21.4,16.0,10.4,64,55,42,30.36,30.12,11,4,14,0.00
2013-3-18,36.1,30.8,21.4,32.9,24.3,8.0,92,77,55,30.12,29.68,13,4,13,0.09
2013-3-19,34.0,24.9,16.3,11.5,8.1,4.0,64,49,35,30.15,29.85,13,5,14,0.00
2013-3-20,27.9,20.4,12.7,7.8,2.3,-1.8,61,45,34,30.18,30.12,13,4,13,0.00
2013-3-21,37.0,24.0,11.8,11.1,5.0,-2.8,57,44,32,30.18,30.06,10,2,10,0.00
2013-3-22,45.3,29.5,14.5,15.5,11.3,5.6,72,49,28,30.21,30.06,6,1,8,0.00
2013-3-23,32.5,28.0,21.6,24.8,18.4,12.8,76,67,57,30.21,30.12,7,2,7,0.00
2013-3-24,39.4,34.1,31.8,27.9,23.1,19.2,80,64,48,30.15,29.76,19,5,57,0.00
2013-3-25,38.5,33.5,31.1,28.0,22.7,18.3,78,65,54,30.18,29.79,12,4,18,0.00
2013-3-26,47.5,36.7,30.6,23.3,20.8,17.4,69,54,35,30.36,30.18,10,2,10,0.00
2013-3-27,45.7,36.8,24.8,23.1,18.3,11.1,66,48,31,30.44,30.36,6,2,6,0.00
2013-3-28,56.3,39.3,23.7,21.9,17.1,12.0,66,43,25,30.47,30.36,8,2,8,0.00
2013-3-29,59.9,42.5,27.5,25.3,19.4,15.1,63,43,22,30.44,30.30,8,1,8,0.00
2013-3-30,61.3,44.8,25.3,37.8,26.6,16.2,81,53,27,30.36,29.91,15,3,18,1.17
2013-3-31,61.2,47.2,35.4,44.2,32.7,19.3,96,61,27,30.00,29.76,12,4,15,0.00
2013-4-1,43.5,34.7,25.9,18.9,12.0,6.9,61,40,28,30.33,30.00,12,3,12,0.00
2013-4-2,47.5,34.3,23.2,14.9,9.7,3.4,62,37,22,30.44,30.30,9,2,10,0.00
2013-4-3,49.5,34.2,19.2,16.5,10.0,5.2,62,38,22,30.56,30.41,10,2,11,0.00
2013-4-4,62.6,44.7,24.4,29.0,19.7,7.9,62,39,24,30.44,30.03,10,2,12,0.00
2013-4-5,51.6,41.6,33.4,27.5,21.9,14.9,71,47,30,30.36,30.09,12,4,12,0.00
2013-4-6,67.8,50.2,35.6,49.4,28.8,18.8,89,46,24,30.27,29.65,18,5,23,0.16
2013-4-7,65.1,49.6,37.0,49.1,35.1,28.4,88,60,33,30.09,29.68,10,3,13,0.00
2013-4-8,65.1,49.9,36.9,56.1,42.2,29.5,98,76,50,30.09,29.62,24,4,26,0.41
2013-4-9,55.4,41.3,39.2,45.4,39.9,38.1,98,95,66,30.15,29.94,14,4,14,0.00
2013-4-10,40.8,39.0,36.7,40.1,38.5,36.2,98,98,97,30.15,29.91,16,5,16,0.54
2013-4-11,44.2,40.9,36.7,43.7,40.4,36.2,98,98,98,30.03,29.65,15,4,19,0.40
2013-4-12,46.0,39.4,36.7,40.5,34.0,28.5,98,81,59,29.91,29.65,10,4,11,0.00
2013-4-13,47.8,38.9,32.2,29.8,24.8,20.3,77,58,38,30.12,29.91,12,3,13,0.00
2013-4-14,65.3,49.3,36.0,46.8,32.1,23.1,74,53,38,30.15,29.76,17,4,17,2.66
2013-4-15,70.5,56.6,42.1,51.8,47.1,40.8,98,72,43,30.09,29.76,24,5,24,0.45
2013-4-16,62.6,46.9,36.0,41.0,33.1,27.4,98,63,29,30.41,30.06,9,2,11,2.27
2013-4-17,45.3,42.9,40.3,44.8,37.0,26.4,98,81,51,30.44,29.91,172,4,172,1.00
2013-4-18,63.9,51.3,41.2,61.3,49.2,32.7,98,93,71,29.91,29.50,18,4,20,2.40
2013-4-19,43.5,37.8,31.8,33.5,27.4,20.7,95,66,50,30.03,29.56,17,6,18,6.51
2013-4-20,52.3,37.9,26.4,28.8,19.4,13.5,87,50,27,30.56,30.03,10,3,12,0.00
2013-4-21,58.5,43.5,25.2,26.5,21.8,16.2,83,47,25,30.65,30.41,16,4,17,0.00
2013-4-22,71.1,55.5,42.4,32.1,28.5,25.7,53,37,22,30.44,30.12,14,4,20,0.00
2013-4-23,60.1,48.5,37.0,51.5,42.7,31.8,98,82,46,30.15,30.00,9,3,11,0.58
2013-4-24,56.3,45.1,35.8,37.8,27.6,20.9,98,55,28,30.21,30.06,10,3,10,0.09
2013-4-25,56.7,45.2,33.4,37.5,28.1,21.6,95,53,30,30.44,30.15,11,3,11,0.04
2013-4-26,69.1,52.7,30.9,42.2,33.3,23.0,77,51,32,30.44,30.30,17,4,19,0.04
2013-4-27,73.0,58.5,41.2,47.4,38.1,31.0,94,52,23,30.39,30.12,13,3,14,7.22
2013-4-28,71.4,56.5,51.8,49.0,43.5,37.3,75,62,43,30.12,29.97,6,2,7,0.04
2013-5-2,74.1,51.2,43.3,48.3,39.5,35.6,87,66,39,30.36,29.97,10,4,18,6.09
2013-5-3,50.7,44.8,39.7,48.4,42.4,35.9,98,91,76,30.27,30.06,8,3,10,0.04
2013-5-4,74.7,59.1,47.7,48.7,43.6,39.0,98,62,32,30.15,30.06,10,2,11,0.04
2013-5-5,76.8,60.3,46.9,42.9,38.9,33.0,77,48,25,30.18,30.06,10,2,13,0.04
2013-5-6,78.1,60.6,48.0,39.8,34.1,26.3,59,40,21,30.18,30.06,10,2,10,0.00
2013-5-7,85.6,64.3,44.4,40.2,36.0,32.2,73,40,18,30.15,30.03,6,2,8,0.00
2013-5-8,89.2,68.1,46.0,49.8,38.8,29.4,85,40,15,30.15,30.00,8,1,8,0.00
2013-5-9,75.4,60.0,46.4,59.0,47.7,40.5,98,67,35,30.06,29.94,57,2,57,0.21
2013-5-10,47.3,45.6,43.5,46.2,43.2,40.2,98,91,78,30.09,29.88,10,2,10,0.12
2013-5-11,62.1,49.7,39.4,49.6,35.0,19.0,98,63,27,30.15,29.88,12,3,12,0.00
2013-5-12,61.0,46.9,37.0,29.2,23.6,19.6,69,42,25,30.21,30.12,8,2,9,0.00
2013-5-13,71.2,51.2,31.5,37.3,29.0,23.4,91,48,17,30.30,30.09,8,2,10,0.00
2013-5-14,94.3,71.5,48.4,52.7,42.5,27.6,52,37,17,30.09,29.68,10,3,12,0.00
2013-5-15,90.1,75.9,58.5,52.7,44.6,38.6,69,35,18,29.91,29.65,8,2,13,0.00
2013-5-16,91.8,68.9,53.6,53.4,41.4,33.1,80,42,17,30.09,29.88,7,2,13,0.00
2013-5-17,69.6,60.0,52.0,46.7,40.4,34.4,59,49,43,30.18,30.03,8,1,9,0.00
2013-5-18,78.1,68.9,61.0,54.9,53.6,40.2,75,59,41,30.09,30.03,6,1,6,0.00
2013-5-19,88.3,73.2,55.9,63.2,57.2,52.2,94,61,35,30.09,29.76,13,2,13,0.00
2013-5-20,90.3,78.9,66.2,66.5,55.8,41.9,98,50,19,29.82,29.71,10,4,10,0.62
2013-5-21,82.6,71.9,63.1,65.6,58.4,46.8,98,66,32,29.76,29.65,11,3,11,0.05
2013-5-22,72.7,65.7,53.4,69.2,60.6,50.3,98,85,49,29.85,29.65,5,1,5,0.83
2013-5-23,55.9,49.4,39.7,52.5,42.3,30.7,98,78,53,30.39,29.82,13,3,13,0.83
2013-5-24,65.8,49.3,35.6,36.8,30.3,27.5,81,51,26,30.59,30.39,7,2,7,0.00
2013-5-25,60.1,50.1,38.7,39.7,34.6,28.8,77,57,38,30.53,30.39,5,1,6,0.00
2013-5-26,70.7,55.6,39.7,45.5,38.6,30.1,78,55,33,30.41,30.24,6,2,9,0.00
2013-5-27,58.8,55.4,52.0,56.1,51.5,39.7,98,87,62,30.27,29.97,6,2,8,8.04
2013-5-28,79.2,66.9,54.3,70.9,63.1,53.4,98,88,61,29.97,29.74,9,1,10,0.33
2013-5-29,83.8,73.4,64.0,67.4,62.7,58.6,98,73,45,30.03,29.79,6,2,8,0.08
2013-5-30,86.5,75.4,63.1,69.5,62.8,54.7,93,66,45,29.91,29.74,9,3,12,0.17
2013-5-31,81.7,71.4,63.1,67.5,62.9,56.4,98,77,49,29.85,29.68,11,2,11,0.21
2013-6-1,76.5,68.8,61.3,68.7,61.7,58.6,98,79,57,29.74,29.65,11,2,11,0.16
2013-6-2,61.3,54.2,42.3,60.8,49.4,39.8,98,84,69,30.12,29.68,5,1,5,0.00
2013-6-3,75.2,57.0,39.7,49.5,39.1,31.4,98,58,27,30.21,30.09,6,1,9,0.00
2013-6-4,62.4,50.3,46.0,50.6,41.9,35.2,87,74,46,30.24,30.18,4,0,6,0.00
2013-6-5,75.4,61.0,54.3,50.9,46.1,40.2,74,59,32,30.27,30.00,5,2,6,0.00
2013-6-6,62.8,56.2,52.0,55.8,49.8,42.8,98,80,53,30.06,29.94,10,1,10,0.33
2013-6-7,72.1,59.4,48.7,50.8,41.7,32.5,85,55,32,30.06,29.97,8,2,10,0.00
2013-6-8,82.0,63.7,45.3,48.9,40.4,33.6,84,48,20,30.12,29.97,6,1,8,0.00
2013-6-9,86.0,68.7,51.8,54.8,49.7,45.0,81,54,30,30.12,29.82,9,1,12,0.00
2013-6-10,79.9,70.2,61.0,67.6,61.3,54.7,95,75,51,29.88,29.76,6,1,6,0.09
2013-6-11,91.6,73.6,58.6,66.8,59.0,53.4,98,65,32,29.97,29.82,4,1,7,0.00
2013-6-12,85.3,70.6,62.6,66.8,61.9,58.5,98,76,43,29.97,29.62,8,1,18,0.33
2013-6-13,82.4,67.0,57.0,62.4,53.1,47.3,98,65,32,30.12,29.65,10,2,10,0.00
2013-6-14,78.3,64.7,52.9,52.9,48.3,44.2,85,58,33,30.21,30.06,6,2,8,0.00
2013-6-15,78.3,68.0,55.8,67.3,59.2,45.2,95,74,59,30.15,29.82,6,1,7,0.16
2013-6-16,94.1,77.6,65.7,66.7,57.0,47.4,85,54,28,29.97,29.82,8,1,9,0.00
2013-6-17,97.5,74.8,58.3,59.1,50.1,41.3,84,49,17,30.03,29.85,6,1,7,0.00
2013-6-18,73.8,61.5,53.2,56.1,48.8,40.6,94,65,44,30.15,29.97,8,2,8,0.00
2013-6-19,82.9,64.8,50.5,51.7,41.0,32.4,81,46,24,30.24,30.12,7,1,7,0.00
2013-6-20,92.8,72.2,52.2,57.8,50.4,35.7,82,49,27,30.24,30.06,6,1,7,0.00
2013-6-21,81.1,71.4,63.1,67.2,61.9,52.3,98,73,53,30.21,29.88,8,1,9,0.42
2013-6-22,80.1,73.0,67.1,71.7,66.5,63.6,98,81,65,30.18,29.94,7,2,7,0.04
2013-6-23,90.0,77.8,66.0,68.0,63.7,57.0,94,64,39,30.09,29.94,10,2,11,0.00
2013-6-24,84.9,73.7,66.4,69.6,65.2,59.0,96,78,43,30.09,29.88,7,2,8,0.25
2013-6-25,84.7,72.2,64.8,74.3,68.6,62.8,98,89,67,30.03,29.82,6,1,8,0.63
2013-6-26,79.2,71.1,64.8,70.7,66.8,64.2,98,87,69,29.88,29.74,5,1,9,4.44
2013-6-27,95.4,76.3,63.5,75.0,66.1,59.8,98,76,37,29.82,29.71,5,1,6,0.12
2013-6-28,89.2,74.0,65.5,64.6,58.7,50.9,86,62,29,29.76,29.59,5,1,6,0.05
2013-6-29,71.6,66.1,62.8,62.8,58.5,49.4,92,78,55,29.82,29.62,8,2,10,0.00
2013-6-30,84.6,69.1,60.4,57.7,48.8,31.1,83,52,24,30.03,29.82,11,2,11,15.68
2013-7-1,81.9,68.5,58.1,51.5,44.1,35.9,71,44,20,30.15,30.03,10,2,10,0.00
2013-7-2,78.6,63.8,57.4,53.7,49.6,42.4,79,62,33,30.18,30.12,7,2,7,0.00
2013-7-3,69.3,63.3,59.9,65.7,60.1,53.7,96,89,78,30.15,30.06,4,0,4,0.45
2013-7-4,89.2,71.5,56.3,67.3,58.4,53.3,98,68,38,30.15,30.00,4,1,5,0.00
2013-7-5,93.9,75.9,61.2,65.9,56.9,47.3,91,56,27,30.12,29.97,6,1,6,16.13
2013-7-6,89.2,75.3,63.3,67.2,61.4,57.3,92,64,38,30.12,30.00,5,1,6,16.13
2013-7-7,92.7,80.0,70.3,67.3,63.9,60.1,83,60,37,30.06,29.94,5,1,7,16.13
2013-7-8,85.8,77.6,69.8,74.2,69.6,66.0,97,77,58,30.06,29.94,6,2,8,0.21
2013-7-9,91.2,78.5,69.8,77.8,73.1,68.8,98,85,56,30.03,29.88,5,1,6,0.71
2013-7-10,90.9,77.8,63.3,75.5,63.0,49.8,97,64,38,30.06,29.85,6,1,6,0.00
2013-7-11,87.4,71.9,59.7,60.8,49.8,40.8,91,51,21,30.18,30.06,6,2,6,0.00
2013-7-12,90.0,70.5,54.5,56.7,49.8,42.2,88,53,20,30.24,30.12,6,1,6,0.00
2013-7-13,90.9,76.2,59.5,62.2,53.3,43.0,88,49,20,30.21,30.12,9,2,9,0.00
2013-7-14,93.6,77.7,65.5,67.2,62.2,57.2,88,62,32,30.24,30.12,6,2,7,0.00
2013-7-15,96.3,79.2,68.7,73.4,69.0,64.4,93,73,40,30.33,30.24,5,1,6,0.00
2013-7-16,97.9,83.6,71.8,76.5,69.6,64.5,98,66,37,30.36,30.27,4,1,6,0.00
2013-7-17,101.7,85.0,72.7,73.5,68.5,0.0,90,61,33,30.39,30.21,4,0,5,0.00
2013-7-18,101.8,86.0,74.8,74.0,69.0,61.5,87,60,30,30.27,30.00,6,1,8,0.00
2013-7-19,97.3,84.5,69.8,74.3,66.3,57.8,91,58,30,30.00,29.76,10,3,13,0.49
2013-7-20,94.3,76.5,65.8,68.7,62.2,51.0,96,68,28,29.97,29.82,7,1,7,0.00
2013-7-21,91.8,73.6,63.3,69.0,62.4,55.2,95,73,32,30.00,29.79,6,1,7,0.67
2013-7-22,89.8,79.1,66.7,73.6,65.1,54.3,98,65,40,29.91,29.74,4,1,6,0.00
2013-7-23,82.9,70.0,59.2,63.7,57.0,50.2,87,65,40,30.03,29.71,7,2,7,0.04
2013-7-24,78.1,64.9,54.9,53.5,48.7,42.8,84,59,31,30.12,30.03,1,1,1,0.00
2013-7-25,86.9,69.8,53.4,58.5,51.9,45.5,94,58,26,30.18,30.06,2,0,2,0.00
2013-7-26,70.0,65.6,60.8,67.8,61.0,53.2,98,86,56,30.09,29.88,4,1,4,0.75
2013-7-27,71.4,60.7,56.7,60.8,50.9,41.7,98,73,44,29.97,29.88,0,0,0,0.00
2013-7-28,71.2,61.1,54.5,53.0,47.1,43.4,78,61,43,30.09,29.91,4,1,6,0.00
2013-7-29,78.6,65.4,53.4,55.5,52.6,49.0,90,65,40,30.24,30.06,4,1,8,0.00
2013-7-30,77.9,65.8,54.7,63.9,57.4,49.5,98,77,40,30.27,30.09,3,1,3,0.04
2013-7-31,73.6,67.4,61.9,67.6,63.8,57.6,98,89,69,30.09,29.94,0,0,1,0.20
2013-8-1,86.5,69.5,59.2,68.3,54.7,45.4,98,65,29,30.00,29.94,0,0,0,0.00
2013-8-2,88.2,73.0,61.7,65.9,59.2,53.3,97,64,41,29.97,29.79,3,1,3,0.17
2013-8-3,87.1,71.1,60.4,57.0,50.1,37.4,78,52,21,30.15,29.94,5,1,5,0.04
2013-8-4,80.8,66.9,57.2,61.6,53.7,48.7,90,65,35,30.27,30.12,6,1,6,0.00
2013-8-5,75.2,66.3,56.7,59.6,55.1,50.7,91,69,45,30.21,29.88,6,1,6,0.00
2013-8-6,70.7,68.1,66.7,66.9,62.9,59.0,92,84,74,29.91,29.82,4,1,4,0.00
2013-8-10,74.8,68.8,0.0,66.5,54.6,0.0,87,61,41,30.18,29.88,4,2,4,0.00
2013-8-11,85.1,69.9,57.2,65.6,57.3,49.8,94,68,33,30.18,29.91,3,1,4,0.00
2013-8-12,84.9,72.8,66.2,68.5,64.2,60.2,94,77,45,30.03,29.85,4,1,4,0.29
2013-8-13,74.8,64.2,55.0,64.2,48.6,39.9,94,60,33,30.24,29.94,8,2,8,0.00
2013-8-14,77.7,62.4,52.0,55.2,47.5,41.0,94,64,30,30.30,30.18,4,1,229,0.00
2013-8-15,84.4,69.1,55.2,53.8,49.5,43.0,81,53,29,30.24,30.12,3,1,4,7.25
2013-8-16,88.3,64.5,55.8,57.6,52.7,46.1,87,71,27,30.24,30.18,4,0,4,0.00
2013-8-17,86.0,73.2,59.7,53.5,47.8,42.8,80,44,26,30.27,30.18,6,2,6,0.00
2013-8-18,85.5,72.1,58.5,54.2,50.5,47.3,85,49,29,30.24,30.12,6,1,8,0.00
2013-8-19,89.6,72.5,57.2,63.7,55.8,51.2,93,60,32,30.21,30.00,4,1,5,0.00
2013-8-20,90.3,75.9,63.9,64.8,57.7,51.1,91,58,31,30.15,30.06,6,1,6,0.00
2013-8-21,90.0,79.1,66.2,65.4,60.3,55.1,87,56,32,30.15,30.00,7,2,7,0.04
2013-8-22,74.5,70.1,64.9,69.3,65.5,62.5,96,85,71,30.21,30.06,6,1,8,7.75
2013-8-23,83.7,70.1,58.1,64.4,52.1,37.1,98,61,22,30.24,30.12,7,1,7,0.00
2013-8-24,86.7,72.5,56.3,65.5,54.5,50.9,96,58,32,30.33,30.18,6,1,6,0.00
2013-8-25,89.6,78.4,66.0,62.7,55.4,47.6,55,46,37,30.30,30.18,6,2,6,0.00
2013-8-26,94.3,82.8,69.3,69.2,65.7,58.6,74,57,38,30.21,30.03,4,2,4,0.00
2013-8-27,94.8,84.3,74.3,71.3,67.0,62.5,80,58,36,30.09,29.88,6,2,6,0.00
2013-8-28,83.3,76.6,69.3,69.9,65.9,61.9,93,71,53,30.12,29.88,4,1,4,0.00
2013-8-29,90.9,76.6,64.8,74.4,62.9,54.7,98,67,33,30.15,30.03,8,1,8,0.00
2013-8-30,94.8,71.6,64.9,70.3,64.8,55.1,94,82,36,30.06,29.76,6,1,8,0.45
2013-8-31,80.1,71.6,67.1,68.7,64.5,60.0,94,79,61,29.91,29.76,6,1,6,0.00
2013-9-1,85.5,73.4,63.7,71.7,64.5,60.7,98,76,47,29.82,29.65,6,0,6,0.75
2013-9-2,80.8,67.9,57.9,69.5,59.7,52.5,98,77,46,30.00,29.82,6,1,6,0.00
2013-9-3,70.9,58.8,53.4,55.5,51.6,48.9,94,78,47,30.12,29.97,1,0,1,0.00
2013-9-4,83.5,69.0,54.5,61.1,54.3,50.8,95,64,34,30.18,30.06,3,0,4,8.95
2013-9-5,74.3,66.6,55.0,66.3,50.3,39.3,94,59,35,30.33,30.12,8,2,172,0.00
2013-9-6,84.2,69.9,53.8,61.6,53.8,45.4,87,60,30,30.30,29.97,5,1,5,0.00
2013-9-7,88.0,75.3,63.9,65.4,60.3,52.0,91,63,31,30.00,29.88,5,1,5,0.00
2013-9-8,73.9,71.1,68.4,67.1,64.3,60.9,92,80,65,30.06,29.94,10,2,10,8.95
2013-9-9,90.9,80.7,67.6,69.0,66.1,63.2,90,64,43,30.00,29.79,6,2,7,0.00
2013-9-10,95.0,85.6,73.2,66.2,57.8,50.5,64,41,25,30.03,29.88,10,2,10,0.00
2013-9-11,91.8,78.6,69.8,69.5,61.2,54.5,80,57,31,30.12,30.00,6,1,6,0.00
2013-9-12,84.0,70.7,59.4,66.5,55.9,47.0,94,63,30,30.12,29.94,10,2,10,0.00
2013-9-13,68.2,57.9,49.5,52.3,40.0,34.9,79,53,34,30.24,30.12,6,2,8,0.00
2013-9-14,72.9,59.4,45.5,49.8,39.9,31.7,91,53,24,30.27,30.06,5,1,5,0.00
2013-9-15,59.5,57.0,54.1,58.3,49.6,35.5,98,79,41,30.21,30.03,5,1,6,0.79
2013-9-16,67.1,56.3,47.3,58.3,45.4,40.7,98,69,43,30.47,30.21,7,2,8,0.21
2013-9-17,70.2,59.1,44.8,52.9,46.6,42.8,97,67,39,30.41,30.15,6,1,9,0.00
2013-9-18,80.4,68.5,60.1,64.9,55.6,47.3,86,65,42,30.15,29.88,6,1,6,0.00
2013-9-19,81.0,73.3,68.7,73.7,67.7,61.2,98,83,64,29.97,29.76,9,2,10,0.75
2013-9-20,76.3,68.0,57.7,66.0,58.1,47.5,93,72,51,29.85,29.71,5,1,5,0.04
2013-9-21,71.1,58.2,48.0,52.5,44.3,38.1,90,63,35,30.00,29.82,6,1,6,0.00
2013-9-22,69.6,55.7,45.3,50.7,42.9,38.9,93,65,36,30.12,29.97,2,0,2,0.00
2013-9-23,66.4,55.2,44.8,51.4,43.9,41.0,95,69,42,30.18,30.06,7,1,10,0.00
2013-9-24,73.4,58.2,45.7,52.3,45.0,40.1,97,66,33,30.15,29.97,115,1,115,0.00
2013-9-25,74.7,58.6,47.5,59.7,47.4,42.8,97,70,37,30.03,29.94,6,1,8,0.00
2013-9-26,77.2,60.7,47.7,61.4,47.3,36.5,97,67,26,30.15,30.00,7,1,7,0.00
2013-9-27,79.5,63.8,48.0,56.9,46.2,39.1,96,59,29,30.24,30.09,8,1,8,0.00
2013-9-28,82.4,69.0,52.3,64.2,49.8,45.5,90,55,30,30.18,29.88,9,2,229,0.04
2013-9-29,72.0,59.5,47.8,63.4,45.9,34.6,96,65,32,30.12,29.91,6,1,6,0.29
2013-9-30,72.1,59.2,43.9,53.9,43.0,36.3,94,60,27,30.09,29.88,57,1,57,0.00
2013-10-1,77.2,68.4,60.8,63.2,57.7,50.7,96,71,47,30.00,29.88,7,3,10,10.86
2013-10-2,79.3,66.3,55.8,60.7,47.2,32.9,95,57,21,30.18,29.97,6,1,6,0.00
2013-10-3,76.6,67.3,57.6,68.8,61.9,50.8,98,84,66,30.06,29.82,6,1,10,0.04
2013-10-4,78.8,68.4,63.9,66.5,62.7,59.8,95,82,60,30.03,29.85,4,1,6,0.00
2013-10-5,80.2,68.6,61.2,72.2,65.3,60.6,98,90,65,29.97,29.74,7,1,10,0.87
2013-10-6,64.4,55.0,44.4,63.7,43.9,33.3,98,70,36,29.82,29.71,7,1,7,0.17
2013-10-7,65.8,53.7,44.4,48.2,41.6,36.8,86,67,37,30.15,29.76,4,1,229,0.00
2013-10-8,74.8,59.9,43.7,56.5,43.2,38.8,97,60,28,30.24,30.12,5,1,229,3.77
2013-10-9,71.4,58.2,45.9,54.6,41.6,34.8,89,59,27,30.33,30.18,7,1,7,0.00
2013-10-10,75.2,59.3,44.1,57.8,44.8,41.0,95,64,31,30.24,30.09,4,1,6,1.66
2013-10-11,75.9,64.6,49.5,55.5,46.3,43.0,89,55,35,30.15,30.00,8,2,9,0.00
2013-10-12,73.4,59.6,46.0,63.1,51.3,42.3,91,75,50,30.24,30.00,6,1,6,0.04
2013-10-13,67.5,51.6,40.8,50.3,37.2,27.4,94,63,29,30.50,30.24,4,0,5,0.00
2013-10-14,64.8,51.2,40.3,47.5,38.6,35.3,88,65,36,30.50,30.18,6,1,6,3.81
2013-10-15,54.1,50.9,45.9,47.3,44.7,41.3,89,80,69,30.21,30.15,3,1,3,0.00
2013-10-17,59.9,47.3,40.1,56.0,43.3,37.2,95,86,69,30.09,29.88,3,0,3,0.25
2013-10-18,51.1,44.3,37.0,47.4,37.6,34.5,97,79,57,30.03,29.88,0,0,0,0.00
2013-10-19,56.3,46.5,40.3,41.0,34.1,26.2,86,65,36,30.03,29.82,6,1,6,0.04
2013-10-20,59.4,48.7,35.6,44.5,37.2,31.7,89,66,45,29.94,29.76,4,1,4,4.10
2013-10-21,54.9,44.2,31.5,41.9,27.3,17.8,67,52,32,30.03,29.82,6,2,6,4.10
2013-10-22,49.6,37.0,28.0,29.8,24.3,19.3,82,61,38,30.09,29.94,3,0,3,0.00
2013-10-23,49.1,38.8,30.2,33.2,24.0,16.8,84,58,31,30.09,29.94,5,1,5,0.00
2013-10-24,48.6,38.6,31.6,29.1,20.2,15.0,67,49,30,30.39,30.06,4,1,4,0.00
2013-10-25,55.4,42.4,27.3,29.6,20.7,16.9,71,44,28,30.44,30.09,2,1,2,0.00
2013-10-26,56.3,45.7,34.2,31.0,22.9,19.1,59,41,31,30.15,29.88,8,2,8,0.00
2013-10-27,56.1,43.3,28.8,32.5,23.4,20.5,78,48,28,30.15,30.00,2,0,2,0.00
2013-10-28,55.8,44.1,33.8,41.3,31.5,22.4,86,62,47,30.47,30.12,4,1,4,4.10
2013-10-29,58.1,47.4,35.8,40.4,36.0,30.2,86,66,36,30.47,30.24,4,1,4,4.10
2013-10-30,59.4,54.4,42.4,58.6,49.4,37.5,98,84,70,30.24,29.82,2,0,2,0.21
2013-10-31,62.8,58.5,45.9,62.2,57.5,40.2,98,96,80,29.82,29.26,2,1,4,0.79
2013-11-1,49.5,45.2,41.9,43.2,39.1,35.1,94,79,66,29.79,29.41,1,1,1,0.08
2013-11-2,48.6,42.1,36.9,44.1,37.7,33.2,98,85,60,30.21,29.79,3,1,3,0.00
2013-11-3,55.4,43.9,31.1,44.8,32.1,25.9,98,67,36,30.39,30.21,7,2,8,0.00
2013-11-4,57.4,50.4,43.2,39.5,33.8,30.2,65,54,36,30.39,30.18,10,3,230,5.18
2013-11-5,56.3,53.0,50.7,50.7,44.4,39.4,93,73,60,30.39,30.06,9,2,12,5.18
2013-11-6,56.8,46.8,33.8,56.3,43.1,22.0,98,87,58,30.27,29.85,9,2,11,0.87
2013-11-7,49.5,36.8,28.4,32.7,25.1,19.3,83,64,34,30.33,30.24,4,1,5,5.18
2013-11-8,48.7,40.5,26.1,33.3,24.7,22.3,90,56,38,30.41,30.03,13,2,13,6.05
2013-11-9,61.7,50.4,40.1,34.9,29.7,17.7,60,45,35,30.21,29.88,9,4,11,0.00
2013-11-10,55.8,43.3,33.8,27.4,23.2,18.2,63,46,30,30.41,30.21,6,2,9,0.00
2013-11-11,46.2,40.1,27.3,33.2,27.1,19.2,90,62,46,30.44,30.15,8,2,8,6.13
2013-11-12,39.9,29.1,20.3,18.8,11.8,8.5,74,49,34,30.80,30.44,7,2,7,6.13
2013-11-13,42.4,33.0,19.0,14.9,11.3,7.7,66,42,26,30.71,30.24,11,4,13,6.13
2013-11-14,51.3,41.4,31.5,21.6,17.3,13.6,49,38,28,30.24,29.97,12,4,12,0.00
2013-11-15,53.8,43.3,37.0,33.2,25.0,19.7,70,50,31,30.09,30.00,9,3,10,6.13
2013-11-16,60.4,51.1,40.1,56.7,47.8,30.0,98,89,64,30.03,29.65,11,5,14,0.17
2013-11-17,67.1,54.9,40.8,62.1,49.4,31.6,98,82,60,29.79,29.20,14,5,14,1.24
2013-11-18,45.7,37.0,27.5,31.8,22.4,16.9,72,56,39,30.36,29.79,10,4,10,0.00
2013-11-19,34.7,28.9,21.9,29.3,21.2,15.7,84,73,59,30.44,30.36,4,2,6,0.00
2013-11-20,48.9,37.8,29.5,36.5,25.2,19.0,89,63,31,30.41,30.18,5,3,5,7.62
2013-11-21,52.0,44.8,39.7,41.0,37.9,35.8,88,77,57,30.33,30.21,4,1,4,0.00
2013-11-22,42.3,38.0,34.3,37.5,29.6,19.3,90,73,47,30.56,30.33,8,2,8,0.00
2013-11-23,27.7,20.1,13.3,6.1,-1.4,-4.6,44,38,32,30.65,29.82,12,4,13,0.00
2013-11-24,41.2,20.6,9.9,23.5,-1.8,-7.7,57,37,20,30.80,30.44,6,2,6,0.00
2013-11-25,31.1,27.5,21.9,24.9,14.2,0.2,78,59,35,30.44,30.12,10,4,11,0.00
2013-11-26,34.3,28.2,15.1,24.9,15.8,-1.9,77,60,42,30.24,30.09,10,3,10,10.44
2013-11-27,30.6,20.9,10.9,7.8,2.3,-4.9,58,44,33,30.36,30.24,9,3,9,0.00
2013-11-28,37.0,25.9,15.6,11.1,6.8,4.1,62,45,32,30.62,30.24,7,2,7,0.00
2013-11-29,39.4,27.4,12.0,18.4,11.1,3.8,76,52,32,30.74,30.47,7,2,11,0.00
2013-11-30,52.2,39.3,27.7,24.6,20.7,15.1,71,48,33,30.50,30.12,10,3,10,10.44
2013-12-1,49.8,34.3,25.5,31.6,23.8,19.1,81,67,40,30.24,30.06,6,1,6,0.00
2013-12-2,46.9,36.2,25.9,36.2,25.4,19.5,92,68,38,30.09,29.85,10,2,10,10.44
2013-12-3,48.9,40.8,36.1,48.4,40.0,34.0,98,97,92,29.85,29.76,3,3,3,0.08
2013-12-4,55.2,49.8,39.2,54.7,48.0,32.7,98,94,72,29.85,29.59,5,3,5,0.12
2013-12-5,39.2,30.8,27.3,32.9,19.7,9.4,79,64,41,30.15,29.76,6,4,6,0.00
2013-12-6,21.2,16.1,10.4,5.4,2.0,-1.8,61,53,44,30.65,30.36,3,3,3,0.00
2013-12-7,23.0,13.0,5.9,1.2,-4.0,-8.9,57,46,34,30.77,30.65,6,2,6,0.00
2013-12-8,26.4,21.0,11.3,22.5,11.6,-5.9,88,68,45,30.71,30.00,11,1,11,0.00
2013-12-9,27.0,16.0,-1.8,20.5,4.4,-14.4,85,61,41,30.33,30.00,11,3,11,0.00
2013-12-10,16.2,6.6,-3.8,0.6,-6.8,-16.3,54,53,48,30.39,30.06,4,2,6,0.00
2013-12-11,26.2,12.0,-1.8,12.0,-3.7,-21.7,76,50,33,30.68,30.36,6,2,6,0.00
2013-12-12,22.8,12.1,-3.8,5.4,-5.3,-23.5,61,46,33,30.68,30.27,6,2,6,0.00
2013-12-13,37.6,26.4,12.0,22.8,14.0,3.2,74,60,39,30.30,30.18,6,2,6,0.00
2013-12-14,32.9,28.5,21.4,27.8,23.6,15.6,93,82,73,30.24,29.97,8,3,9,0.00
2013-12-15,21.4,15.2,7.7,15.7,1.1,-8.8,79,54,42,30.21,30.00,8,3,8,0.12
2013-12-16,24.4,14.7,1.4,13.0,0.7,-14.6,78,54,38,30.27,30.06,6,1,6,0.00
2013-12-17,37.4,25.4,15.4,20.1,14.6,9.5,90,65,47,30.18,30.00,7,3,9,0.12
2013-12-18,39.4,27.3,13.5,23.7,10.8,3.2,71,51,30,30.27,29.88,13,4,13,0.00
2013-12-19,39.7,31.1,26.2,32.2,24.6,21.0,85,77,68,30.03,29.91,6,1,6,0.00
2013-12-20,41.2,32.7,31.5,32.6,32.1,30.3,98,98,65,30.03,29.79,4,0,4,0.41
2013-12-21,34.2,31.7,28.9,33.7,31.2,28.5,98,98,96,29.97,29.68,9,2,10,0.58
2013-12-22,34.3,29.7,23.0,32.6,26.1,17.9,98,87,70,30.21,29.71,7,1,7,0.00
2013-12-23,23.9,13.9,-2.9,20.3,3.9,-16.9,86,65,45,30.56,30.21,0,0,0,0.00
2013-12-24,21.9,9.7,-2.9,7.2,-5.4,-16.9,65,50,36,30.62,30.41,0,0,0,0.00
2013-12-25,27.1,22.9,16.9,22.0,15.5,5.8,87,73,56,30.47,30.15,8,3,11,0.00
2013-12-26,33.1,25.6,10.8,26.3,15.0,2.0,81,64,47,30.36,30.18,7,2,8,0.00
2013-12-27,40.3,32.1,18.5,26.7,22.9,14.5,87,70,54,30.39,30.12,10,2,10,0.12
2013-12-28,50.0,41.0,30.9,31.8,26.7,24.7,87,58,39,30.21,29.91,8,3,9,0.00
2013-12-29,38.3,26.5,7.5,27.5,15.9,-7.6,82,64,49,30.33,29.85,10,3,10,0.00
2013-12-30,15.3,6.6,-2.0,-2.1,-11.0,-16.5,49,44,37,30.39,30.24,3,2,3,0.00
2013-12-31,20.1,8.7,0.3,-1.6,-9.8,-19.8,46,42,36,30.41,30.27,3,2,3,0.00
2014-1-1,22.8,17.2,8.6,15.9,7.1,-7.9,82,65,46,30.39,30.27,6,3,7,7.75
2014-1-2,20.8,12.6,0.1,14.0,2.3,-12.6,80,64,47,30.50,30.21,6,2,8,0.70